Latest Coastal Weather Observations for Port Kembla Harbour

IDN60701

Issued at 10:53 pm EST Wednesday 25 May 2016 (issued every 10 minutes, with the page automatically refreshed every 10 minutes)

About coastal observations | Map of coastal stations | Coastal observations for NSW | Marine services | Other Formats
Station Details ID: 068253 Name: PORT KEMBLA NTC AWS Lat: -34.47 Lon: 150.91 Height: 0.0 m
Data from the previous 72 hours. | See also: Recent months for locations in New South Wales
Date/Time
EST
Temp

°C
Wind Pressure Rain
since 9am
mm
Weather Cloud Vis
km
Sea
Height
m
Swell
Dir
 
Speed
knots
Gust
knots
hPa Trend Height
m
Period
s
Dir
25/10:30pm 16.2 W 6 9 1012.7 - - - - - - - - -
25/10:00pm 16.3 WNW 7 12 1012.9 - - - - - - - - -
25/09:30pm 16.1 WNW 11 13 1012.7 - - - - - - - - -
25/09:00pm 16.2 W 9 14 1013.1 - - - - - - - - -
25/08:30pm 16.0 SW 6 9 1013.2 - - - - - - - - -
25/08:00pm 16.1 WSW 4 7 1013.2 - - - - - - - - -
25/07:30pm 15.5 WSW 4 5 1013.2 - - - - - - - - -
25/07:00pm 15.0 WSW 5 6 1013.0 - - - - - - - - -
25/06:30pm 15.2 WSW 6 8 1013.0 - - - - - - - - -
25/06:00pm 16.7 W 4 6 1012.9 - - - - - - - - -
25/05:30pm 17.5 NW 4 6 1012.8 - - - - - - - - -
25/05:00pm 17.9 NE 6 8 1012.3 - - - - - - - - -
25/04:30pm 17.8 NNE 4 6 1012.7 - - - - - - - - -
25/04:00pm 17.9 NNE 4 6 1012.6 - - - - - - - - -
25/03:30pm 17.7 NE 5 9 1012.7 - - - - - - - - -
25/03:00pm 17.5 NE 4 6 1012.7 - - - - - - - - -
25/02:30pm 17.5 NE 4 7 1013.1 - - - - - - - - -
25/02:00pm 17.3 NE 6 9 1012.8 - - - - - - - - -
25/01:30pm 17.3 ENE 5 8 1013.2 - - - - - - - - -
25/01:00pm 16.9 NE 6 10 1013.7 - - - - - - - - -
25/12:30pm 16.9 ENE 5 7 1014.1 - - - - - - - - -
25/12:00pm 16.6 E 5 8 1014.6 - - - - - - - - -
25/11:30am 16.6 ENE 4 7 1015.3 - - - - - - - - -
25/11:00am 16.6 ENE 2 4 1015.5 - - - - - - - - -
25/10:30am 16.3 WSW 5 9 1016.6 - - - - - - - - -
25/10:00am 15.8 W 7 10 1016.9 - - - - - - - - -
25/09:30am 15.8 W 8 12 1016.8 - - - - - - - - -
25/09:00am 14.9 W 9 13 1016.8 - - - - - - - - -
25/08:30am 14.1 W 11 13 1016.8 - - - - - - - - -
25/08:00am 13.2 W 10 13 1017.1 - - - - - - - - -
25/07:30am 12.2 W 10 12 1016.7 - - - - - - - - -
25/07:00am 12.3 W 7 9 1016.4 - - - - - - - - -
25/06:30am 12.0 W 9 12 1016.3 - - - - - - - - -
25/06:00am 12.4 W 8 11 1016.0 - - - - - - - - -
25/05:30am 12.6 W 9 11 1015.7 - - - - - - - - -
25/05:00am 13.0 WSW 9 14 1015.7 - - - - - - - - -
25/04:30am 13.1 W 9 11 1015.8 - - - - - - - - -
25/04:00am 13.0 W 11 14 1015.8 - - - - - - - - -
25/03:30am 13.1 W 11 16 1015.8 - - - - - - - - -
25/03:00am 13.5 W 14 17 1015.7 - - - - - - - - -
25/02:30am 13.7 W 12 16 1015.9 - - - - - - - - -
25/02:00am 13.7 W 13 17 1016.1 - - - - - - - - -
25/01:30am 13.8 W 13 16 1016.2 - - - - - - - - -
25/01:00am 14.0 W 13 16 1016.4 - - - - - - - - -
25/12:30am 14.2 W 13 17 1016.6 - - - - - - - - -
25/12:00am 14.4 W 12 15 1016.8 - - - - - - - - -
 
Date/Time
EST
Temp

°C
Wind Pressure Rain
since 9am
mm
Weather Cloud Vis
km
Sea
Height
m
Swell
Dir
 
Speed
knots
Gust
knots
hPa Trend Height
m
Period
s
Dir
24/11:30pm 14.5 W 12 17 1016.8 - - - - - - - - -
24/11:00pm 14.8 W 14 19 1016.9 - - - - - - - - -
24/10:30pm 14.9 W 12 16 1016.7 - - - - - - - - -
24/10:00pm 14.9 W 15 22 1016.7 - - - - - - - - -
24/09:30pm 15.0 W 14 22 1016.8 - - - - - - - - -
24/09:00pm 15.4 W 14 21 1016.8 - - - - - - - - -
24/08:30pm 15.5 W 14 21 1016.6 - - - - - - - - -
24/08:00pm 15.7 W 13 19 1016.3 - - - - - - - - -
24/07:30pm 16.1 W 16 23 1015.9 - - - - - - - - -
24/07:00pm 16.6 W 16 22 1015.3 - - - - - - - - -
24/06:30pm 17.1 W 17 25 1015.0 - - - - - - - - -
24/06:00pm 17.3 W 12 18 1014.4 - - - - - - - - -
24/05:30pm 17.9 W 14 22 1014.0 - - - - - - - - -
24/05:00pm 18.4 W 13 17 1013.8 - - - - - - - - -
24/04:30pm 19.0 W 12 19 1013.6 - - - - - - - - -
24/04:00pm 19.6 W 10 17 1013.4 - - - - - - - - -
24/03:30pm 19.9 W 13 19 1013.3 - - - - - - - - -
24/03:00pm 20.0 W 10 16 1013.2 - - - - - - - - -
24/02:30pm 20.1 SW 8 14 1012.9 - - - - - - - - -
24/02:00pm 19.5 SW 7 12 1013.0 - - - - - - - - -
24/01:30pm 19.4 WSW 7 12 1013.3 - - - - - - - - -
24/01:00pm 18.9 WSW 8 12 1013.6 - - - - - - - - -
24/12:30pm 18.5 SW 8 12 1014.0 - - - - - - - - -
24/12:00pm 18.1 WSW 13 18 1014.6 - - - - - - - - -
24/11:30am 18.0 W 15 20 1014.9 - - - - - - - - -
24/11:00am 17.5 W 17 21 1015.6 - - - - - - - - -
24/10:30am 17.0 WSW 15 21 1016.3 - - - - - - - - -
24/10:00am 16.6 W 19 24 1016.5 - - - - - - - - -
24/09:30am 16.0 W 16 23 1016.8 - - - - - - - - -
24/09:00am 15.4 W 15 21 1017.0 - - - - - - - - -
24/08:30am 14.8 W 14 20 1017.2 - - - - - - - - -
24/08:00am 14.6 W 14 20 1017.1 - - - - - - - - -
24/07:30am 14.1 W 12 16 1016.7 - - - - - - - - -
24/07:00am 14.2 W 11 14 1016.3 - - - - - - - - -
24/06:30am 14.2 W 14 19 1016.2 - - - - - - - - -
24/06:00am 14.1 W 15 20 1016.3 - - - - - - - - -
24/05:30am 14.2 W 14 20 1016.6 - - - - - - - - -
24/05:00am 14.3 W 14 21 1016.7 - - - - - - - - -
24/04:30am 14.2 W 13 19 1016.8 - - - - - - - - -
24/04:00am 14.3 W 13 18 1016.8 - - - - - - - - -
24/03:30am 14.4 WNW 11 16 1016.8 - - - - - - - - -
24/03:00am 14.2 WNW 9 14 1016.9 - - - - - - - - -
24/02:30am 14.3 W 11 15 1017.0 - - - - - - - - -
24/02:00am 14.0 W 12 17 1017.3 - - - - - - - - -
24/01:30am 14.1 W 10 14 1017.2 - - - - - - - - -
24/01:00am 14.1 WNW 14 21 1017.1 - - - - - - - - -
24/12:30am 14.5 WNW 17 23 1017.3 - - - - - - - - -
24/12:00am 14.4 W 13 20 1017.4 - - - - - - - - -
 
Date/Time
EST
Temp

°C
Wind Pressure Rain
since 9am
mm
Weather Cloud Vis
km
Sea
Height
m
Swell
Dir
 
Speed
knots
Gust
knots
hPa Trend Height
m
Period
s
Dir
23/11:30pm 14.7 W 15 20 1017.1 - - - - - - - - -
23/11:00pm 14.7 W 11 18 1017.0 - - - - - - - - -
23/10:30pm 14.9 W 10 15 1016.9 - - - - - - - - -
23/10:00pm 15.1 W 13 17 1017.0 - - - - - - - - -
23/09:30pm 15.3 W 15 20 1016.7 - - - - - - - - -
23/09:00pm 15.6 W 14 25 1016.4 - - - - - - - - -
23/08:52pm 15.7 W 15 25 1016.3 - - - - - - - - -
23/08:30pm 15.9 W 15 22 1016.5 - - - - - - - - -
23/08:00pm 16.1 W 13 20 1016.3 - - - - - - - - -
23/07:30pm 16.6 W 13 18 1016.0 - - - - - - - - -
23/07:00pm 17.0 W 18 25 1015.7 - - - - - - - - -
23/06:30pm 17.4 W 15 20 1015.2 - - - - - - - - -
23/06:00pm 17.9 W 14 21 1014.6 - - - - - - - - -
23/05:30pm 18.3 W 14 18 1014.2 - - - - - - - - -
23/05:00pm 18.7 W 16 26 1013.7 - - - - - - - - -
23/04:59pm 18.7 W 16 26 1013.7 - - - - - - - - -
23/04:30pm 19.6 W 15 21 1013.5 - - - - - - - - -
23/04:12pm 20.0 W 21 31 1013.2 - - - - - - - - -
23/04:00pm 20.1 W 20 30 1013.0 - - - - - - - - -
23/03:31pm 20.8 W 19 29 1013.0 - - - - - - - - -
23/03:30pm 20.8 W 19 27 1013.0 - - - - - - - - -
23/03:00pm 21.4 W 19 29 1012.5 - - - - - - - - -
23/02:47pm 21.3 WSW 22 32 1012.4 - - - - - - - - -
23/02:30pm 21.6 WSW 22 29 1012.0 - - - - - - - - -
23/02:00pm 22.2 W 18 28 1011.8 - - - - - - - - -
23/01:30pm 22.2 W 17 23 1011.4 - - - - - - - - -
23/01:00pm 21.8 WNW 10 16 1011.7 - - - - - - - - -
23/12:30pm 21.4 W 15 21 1012.0 - - - - - - - - -
23/12:12pm 21.8 W 17 27 1012.3 - - - - - - - - -
23/12:00pm 22.1 WSW 17 24 1012.3 - - - - - - - - -
23/11:30am 23.3 W 22 29 1011.8 - - - - - - - - -
23/11:00am 24.6 W 15 30 1011.6 - - - - - - - - -
23/10:57am 24.5 W 12 30 1011.6 - - - - - - - - -
23/10:30am 23.4 WNW 7 10 1011.6 - - - - - - - - -
23/10:00am 21.1 N 11 16 1011.7 - - - - - - - - -
23/09:30am 20.4 NNE 8 11 1012.0 - - - - - - - - -
23/09:00am 20.3 NNE 7 9 1012.3 - - - - - - - - -

Other Formats:

Comma delimited format used in spreadsheet applications
http://www.bom.gov.au/fwo/IDN60701/IDN60701.95745.axf

JavaScript Object Notation format (JSON) in row-major order
http://www.bom.gov.au/fwo/IDN60701/IDN60701.95745.json